Wednesday, October 18, 2017, 6:02 PM EDT
Back to Local

KMUI, Muir Army Air Field / Indiantown

Location: Jonestown, PA, United States Lat: 40.433
Local Time: 6:02 PM EDT (22:02 GMT) Lon: -76.567
Time Zone: US/Eastern Elev: 488 ft

Show me the last for .
Show Decoded

2017-10-18 16:58 METAR KMUI 182058Z 24004KT 10SM CLR 21/06 A3027 RMK AO2A SLP254 T02060064 57012
                 =
2017-10-18 15:58 METAR KMUI 181958Z 23005KT 10SM CLR 21/06 A3028 RMK AO2A SLP258 T02110056 =
2017-10-18 14:58 METAR KMUI 181858Z AUTO 24006KT 10SM CLR 22/06 A3029 RMK AO2 SLP261 T02150062 =
2017-10-18 13:58 METAR KMUI 181758Z AUTO 23006KT 10SM CLR 21/07 A3030 RMK AO2 SLP264 T02090074
                 10209 20032 57022 =
2017-10-18 12:58 METAR KMUI 181658Z AUTO 00000KT 10SM CLR 20/08 A3033 RMK AO2 SLP275 T01970076 =
2017-10-18 11:58 METAR KMUI 181558Z AUTO 25004KT 10SM CLR 17/08 A3036 RMK AO2 SLP285 T01690077 =
2017-10-18 10:58 METAR KMUI 181458Z AUTO 00000KT 10SM CLR 13/07 A3037 RMK AO2 SLP289 T01340074
                 50002 =
2017-10-18 09:58 METAR KMUI 181358Z AUTO 22003KT 10SM CLR 10/07 A3037 RMK AO2 SLP290 T00970065 =
2017-10-18 08:58 METAR KMUI 181258Z AUTO 00000KT 10SM CLR 06/06 A3037 RMK AO2 SLP290 T00620060 =
2017-10-18 07:58 METAR KMUI 181158Z AUTO 00000KT 10SM CLR 03/03 A3036 RMK AO2 SLP287 T00270027
                 10039 20022 52017 =
2017-10-18 06:58 METAR KMUI 181058Z AUTO 00000KT 10SM CLR 03/03 A3034 RMK AO2 SLP280 T00260026 =
2017-10-18 05:58 METAR KMUI 180958Z AUTO 00000KT 10SM CLR 02/02 A3032 RMK AO2 SLP273 T00230023 =
2017-10-18 04:58 METAR KMUI 180858Z AUTO 00000KT 10SM CLR 03/03 A3031 RMK AO2 SLP269 T00310031
                 53000 =
2017-10-18 03:58 METAR KMUI 180758Z AUTO 00000KT 10SM CLR 03/03 A3030 RMK AO2 SLP265 T00310030 =
2017-10-18 02:58 METAR KMUI 180658Z AUTO 00000KT 10SM CLR 04/04 A3031 RMK AO2 SLP268 T00370037 =
2017-10-18 01:58 METAR KMUI 180558Z AUTO 00000KT 10SM CLR 04/04 A3031 RMK AO2 SLP268 T00370036
                 10078 20036 50000 =
2017-10-18 00:58 METAR KMUI 180458Z AUTO 00000KT 10SM CLR 04/04 A3031 RMK AO2 SLP269 T00360035
                 401600007 =
2017-10-17 23:58 METAR KMUI 180358Z AUTO 00000KT 10SM CLR 04/04 A3031 RMK AO2 SLP269 T00440043 =
2017-10-17 22:58 METAR KMUI 180258Z AUTO 00000KT 10SM CLR 05/05 A3031 RMK AO2 SLPNO T00490045
                 52009 =
2017-10-17 21:58 METAR KMUI 180158Z AUTO 00000KT 10SM CLR 05/04 A3029 RMK AO2 SLP263 T00540044 =
2017-10-17 20:58 METAR KMUI 180058Z 00000KT 10SM CLR 06/05 A3028 RMK AO2A SLP259 T00640047 =
2017-10-17 19:58 METAR KMUI 172358Z 00000KT 10SM CLR 08/04 A3028 RMK AO2A SLP260 T00760044 10160
                 20073 53007 =
2017-10-17 18:58 METAR KMUI 172258Z 00000KT 10SM CLR 09/05 A3027 RMK AO2A SLP257 T00880050 =

Support USWX by starting your Amazon purchase here.